Time;durP1;ratioP1;P1;durP2;ratioP2;P2;SDS_P1;SDS_P2;PMS_P1;PMS_P2;Temp;Humidity;BMP_temperature;BMP_pressure;BME280_temperature;BME280_humidity;BME280_pressure;Samples;Min_cycle;Max_cycle;Signal;HPM_P1;HPM_P2
2023/04/07 00:01:20;;;;;;;30.90;19.33;;;;;;;7.73;100.00;101395.13;5026127;28;20032;-84
2023/04/07 00:03:45;;;;;;;32.45;20.05;;;;;;;7.74;100.00;101389.75;5035273;28;20025;-84
2023/04/07 00:06:11;;;;;;;28.90;20.25;;;;;;;7.73;100.00;101392.50;5025221;28;20542;-84
2023/04/07 00:08:36;;;;;;;32.35;20.88;;;;;;;7.72;100.00;101396.06;5032716;28;20065;-84
2023/04/07 00:11:01;;;;;;;31.88;20.40;;;;;;;7.72;100.00;101396.91;5033180;28;20021;-84
2023/04/07 00:13:26;;;;;;;31.98;19.20;;;;;;;7.73;100.00;101397.78;5033849;28;20033;-84
2023/04/07 00:15:52;;;;;;;30.98;19.42;;;;;;;7.71;100.00;101389.06;5033321;28;20021;-84
2023/04/07 00:18:17;;;;;;;26.85;19.17;;;;;;;7.71;100.00;101395.22;5026184;28;20064;-84
2023/04/07 00:20:42;;;;;;;29.35;20.23;;;;;;;7.72;100.00;101396.06;5032169;28;20056;-84
2023/04/07 00:23:08;;;;;;;28.80;19.70;;;;;;;7.71;100.00;101399.63;5025855;28;20041;-84
2023/04/07 00:25:33;;;;;;;30.63;20.00;;;;;;;7.70;100.00;101398.78;5029354;28;20039;-84
2023/04/07 00:27:58;;;;;;;29.85;19.85;;;;;;;7.70;100.00;101404.09;5025360;28;20047;-84
2023/04/07 00:30:24;;;;;;;28.27;20.05;;;;;;;7.68;100.00;101398.03;5021428;28;20021;-84
2023/04/07 00:32:50;;;;;;;31.35;20.73;;;;;;;7.66;100.00;101396.41;5028583;28;20552;-84
2023/04/07 00:35:16;;;;;;;31.58;19.42;;;;;;;7.66;100.00;101404.31;5025171;28;20033;-84
2023/04/07 00:37:41;;;;;;;26.73;19.52;;;;;;;7.65;100.00;101400.84;5034312;28;20056;-84
2023/04/07 00:40:07;;;;;;;29.70;19.77;;;;;;;7.64;100.00;101395.63;5025397;28;20026;-84
2023/04/07 00:42:33;;;;;;;29.33;19.70;;;;;;;7.65;100.00;101400.84;5033757;28;20454;-84
2023/04/07 00:44:58;;;;;;;26.80;18.10;;;;;;;7.65;100.00;101402.63;5035995;28;20032;-84
2023/04/07 00:47:23;;;;;;;27.48;18.45;;;;;;;7.64;100.00;101396.47;5037427;28;20507;-84
2023/04/07 00:49:49;;;;;;;28.00;19.40;;;;;;;7.64;100.00;101400.94;5038333;28;20038;-84
2023/04/07 00:52:15;;;;;;;25.40;17.88;;;;;;;7.65;100.00;101394.72;5037824;28;20033;-84
2023/04/07 00:54:42;;;;;;;29.52;19.40;;;;;;;7.63;100.00;101396.56;5038770;28;20044;-84
2023/04/07 00:57:08;;;;;;;26.98;18.98;;;;;;;7.60;100.00;101390.50;5033246;28;20021;-84
2023/04/07 00:59:33;;;;;;;30.73;19.08;;;;;;;7.60;100.00;101398.44;5030229;28;20125;-84
2023/04/07 01:02:15;;;;;;;29.65;20.23;;;;;;;7.62;100.00;101401.00;5035993;28;20076;-84
2023/04/07 01:04:40;;;;;;;30.70;20.15;;;;;;;7.58;100.00;101399.47;5039376;28;20029;-84
2023/04/07 01:07:14;;;;;;;28.63;19.33;;;;;;;7.59;100.00;101401.16;5030323;28;20161;-84
2023/04/07 01:09:53;;;;;;;32.10;20.80;;;;;;;7.58;100.00;101402.97;5035228;28;20034;-84
2023/04/07 01:12:30;;;;;;;29.00;19.90;;;;;;;7.57;100.00;101411.81;5033204;28;20018;-84
2023/04/07 01:14:59;;;;;;;32.10;20.35;;;;;;;7.54;100.00;101401.44;5025845;28;20030;-84
2023/04/07 01:17:26;;;;;;;;;;;;;;;7.64;100.00;101408.84;5034460;28;20053;-84
2023/04/07 01:20:07;;;;;;;29.80;20.48;;;;;;;7.56;100.00;101404.84;5033984;28;19909;-84
2023/04/07 01:22:54;;;;;;;30.27;20.02;;;;;;;7.58;100.00;101405.63;5025734;28;20360;-84
2023/04/07 01:25:34;;;;;;;35.70;22.52;;;;;;;7.54;100.00;101405.84;5023566;28;20057;-84
2023/04/07 01:27:59;;;;;;;34.60;22.67;;;;;;;7.54;100.00;101406.72;5029471;28;20095;-84
2023/04/07 01:30:27;;;;;;;27.33;20.80;;;;;;;7.51;100.00;101406.91;5022623;28;20021;-84
2023/04/07 01:32:55;;;;;;;34.65;21.38;;;;;;;7.49;100.00;101405.25;5029665;28;20717;-84
2023/04/07 01:35:22;;;;;;;28.00;18.42;;;;;;;7.50;100.00;101412.25;5032040;28;20025;-84
2023/04/07 01:37:49;;;;;;;27.90;18.92;;;;;;;7.49;100.00;101410.53;5026811;28;20463;-84
2023/04/07 01:40:15;;;;;;;25.45;18.35;;;;;;;7.49;100.00;101414.03;5025583;28;20029;-84
2023/04/07 01:42:42;;;;;;;24.02;17.33;;;;;;;7.47;100.00;101409.78;5034337;28;20451;-84
2023/04/07 01:45:08;;;;;;;27.60;15.23;;;;;;;7.46;100.00;101419.50;5030889;28;20067;-84
2023/04/07 01:47:36;;;;;;;26.65;15.75;;;;;;;7.44;100.00;101416.06;5025775;28;20116;-84
2023/04/07 01:50:05;;;;;;;22.13;14.38;;;;;;;7.45;100.00;101420.44;5033498;28;20021;-84
2023/04/07 01:52:33;;;;;;;18.95;13.75;;;;;;;7.44;100.00;101424.00;5030008;28;20021;-84
2023/04/07 01:54:58;;;;;;;19.83;12.52;;;;;;;7.43;100.00;101427.59;5030130;28;20025;-84
2023/04/07 01:57:24;;;;;;;16.40;11.98;;;;;;;7.41;100.00;101426.81;5033556;28;20055;-84
2023/04/07 01:59:49;;;;;;;17.85;12.75;;;;;;;7.41;100.00;101435.63;5020985;28;20025;-84
2023/04/07 02:02:14;;;;;;;18.42;12.10;;;;;;;7.41;100.00;101430.31;5033260;28;20033;-84
2023/04/07 02:04:51;;;;;;;19.67;11.88;;;;;;;7.40;100.00;101441.81;5031960;28;20025;-84
2023/04/07 02:07:26;;;;;;;18.33;11.63;;;;;;;7.39;100.00;101439.25;5027987;28;20025;-84
2023/04/07 02:09:55;;;;;;;20.55;12.30;;;;;;;7.40;100.00;101438.34;5032684;28;20039;-84
2023/04/07 02:12:22;;;;;;;19.27;13.17;;;;;;;7.40;100.00;101436.53;5032698;28;20029;-84
2023/04/07 02:14:48;;;;;;;19.13;13.23;;;;;;;7.39;100.00;101431.34;5022856;28;20290;-84
2023/04/07 02:17:15;;;;;;;22.25;13.32;;;;;;;7.38;100.00;101434.94;5038915;28;20495;-83
2023/04/07 02:19:42;;;;;;;23.10;13.55;;;;;;;7.39;100.00;101439.25;5035426;28;20373;-83
2023/04/07 02:22:08;;;;;;;21.75;13.63;;;;;;;7.39;100.00;101436.63;5027874;28;20049;-83
2023/04/07 02:24:33;;;;;;;20.20;14.40;;;;;;;7.37;100.00;101431.41;5037367;28;20104;-84
2023/04/07 02:27:00;;;;;;;20.35;14.20;;;;;;;7.38;100.00;101432.28;5037401;28;20419;-84
2023/04/07 02:29:26;;;;;;;24.25;14.25;;;;;;;7.37;100.00;101433.22;5037290;28;20095;-84
2023/04/07 02:31:51;;;;;;;22.30;15.68;;;;;;;7.37;100.00;101427.94;5034964;28;20026;-84
2023/04/07 02:34:16;;;;;;;24.08;16.48;;;;;;;7.36;100.00;101428.84;5040568;28;20029;-84
2023/04/07 02:36:41;;;;;;;28.17;17.33;;;;;;;7.36;100.00;101420.91;5045218;28;20037;-84
2023/04/07 02:39:08;;;;;;;24.42;15.85;;;;;;;7.36;100.00;101431.50;5030282;28;20056;-84
2023/04/07 02:41:33;;;;;;;25.35;18.35;;;;;;;7.36;100.00;101420.91;5047630;28;20044;-84
2023/04/07 02:43:59;;;;;;;25.10;17.52;;;;;;;7.35;100.00;101421.88;5044193;28;20026;-84
2023/04/07 02:46:24;;;;;;;24.50;17.98;;;;;;;7.33;100.00;101421.97;5037735;28;20368;-84
2023/04/07 02:48:50;;;;;;;25.95;17.58;;;;;;;7.35;100.00;101429.81;5034931;28;20075;-84
2023/04/07 02:51:15;;;;;;;26.88;18.20;;;;;;;7.33;100.00;101432.53;5023394;28;20041;-84
2023/04/07 02:53:41;;;;;;;23.15;15.55;;;;;;;7.34;100.00;101433.38;5028421;28;20519;-84
2023/04/07 02:56:06;;;;;;;22.10;14.45;;;;;;;7.34;100.00;101428.94;5028297;28;20033;-84
2023/04/07 02:58:31;;;;;;;24.27;15.27;;;;;;;7.32;100.00;101425.53;5031406;28;20116;-84
2023/04/07 03:00:57;;;;;;;19.42;14.02;;;;;;;7.33;100.00;101431.69;5026758;28;20022;-84
2023/04/07 03:03:22;;;;;;;22.13;14.32;;;;;;;7.32;100.00;101429.97;5036406;28;20419;-84
2023/04/07 03:05:47;;;;;;;22.63;14.20;;;;;;;7.32;100.00;101435.25;5035172;28;20068;-84
2023/04/07 03:08:12;;;;;;;24.77;13.80;;;;;;;7.31;100.00;101428.25;5040799;28;20105;-84
2023/04/07 03:10:38;;;;;;;22.10;14.38;;;;;;;7.31;100.00;101433.53;5031740;28;20571;-84
2023/04/07 03:13:03;;;;;;;24.17;14.02;;;;;;;7.31;100.00;101438.81;5041329;28;20104;-84
2023/04/07 03:15:28;;;;;;;20.75;13.65;;;;;;;7.32;100.00;101437.91;5035751;28;20116;-84
2023/04/07 03:17:53;;;;;;;18.63;13.23;;;;;;;7.30;100.00;101440.63;5040266;28;20032;-84
2023/04/07 03:20:19;;;;;;;21.92;13.35;;;;;;;7.30;100.00;101439.78;5039938;28;20093;-84
2023/04/07 03:22:46;;;;;;;21.60;13.30;;;;;;;7.30;100.00;101443.25;5029666;28;20037;-84
2023/04/07 03:25:11;;;;;;;22.70;13.02;;;;;;;7.30;100.00;101442.41;5030240;28;20375;-84
2023/04/07 03:27:36;;;;;;;20.98;13.43;;;;;;;7.28;100.00;101433.69;5028091;28;20091;-84
2023/04/07 03:30:02;;;;;;;19.50;13.63;;;;;;;7.29;100.00;101435.41;5039148;28;20116;-84
2023/04/07 03:32:28;;;;;;;20.67;13.25;;;;;;;7.26;100.00;101432.94;5028977;28;20101;-84
2023/04/07 03:34:53;;;;;;;24.50;13.00;;;;;;;7.27;100.00;101438.13;5035020;28;20096;-84
2023/04/07 03:37:18;;;;;;;21.98;12.95;;;;;;;7.24;100.00;101435.66;5036906;28;20026;-84
2023/04/07 03:39:44;;;;;;;18.40;12.57;;;;;;;7.23;100.00;101437.44;5036961;28;20052;-84
2023/04/07 03:42:09;;;;;;;22.52;13.57;;;;;;;7.25;100.00;101441.81;5038422;28;20459;-84
2023/04/07 03:44:35;;;;;;;22.17;13.70;;;;;;;7.20;100.00;101428.84;5038446;28;20068;-84
2023/04/07 03:47:00;;;;;;;23.20;14.30;;;;;;;7.19;100.00;101429.75;5039554;28;20521;-84
2023/04/07 03:49:25;;;;;;;25.38;14.65;;;;;;;7.22;100.00;101442.81;5031100;28;20093;-84
2023/04/07 03:51:51;;;;;;;22.35;14.68;;;;;;;7.20;100.00;101442.03;5039510;28;20018;-84
2023/04/07 03:54:19;;;;;;;23.80;15.35;;;;;;;7.19;100.00;101443.84;5031962;28;20515;-84
2023/04/07 03:56:45;;;;;;;25.03;15.63;;;;;;;7.19;100.00;101440.31;5034171;28;20037;-84
2023/04/07 03:59:10;;;;;;;24.13;16.70;;;;;;;7.20;100.00;101444.69;5037813;28;20034;-84
2023/04/07 04:01:36;;;;;;;25.90;15.82;;;;;;;7.19;100.00;101443.84;5040084;28;20067;-84
2023/04/07 04:04:01;;;;;;;27.23;15.88;;;;;;;7.16;100.00;101444.00;5039260;28;20040;-84
2023/04/07 04:06:27;;;;;;;28.35;17.13;;;;;;;7.15;100.00;101446.72;5033245;28;20038;-84
2023/04/07 04:08:52;;;;;;;27.23;16.83;;;;;;;7.12;100.00;101439.78;5034666;28;20021;-84
2023/04/07 04:11:17;;;;;;;22.42;15.52;;;;;;;7.15;100.00;101441.44;5039051;28;20410;-84
2023/04/07 04:13:42;;;;;;;27.48;16.38;;;;;;;7.14;100.00;101448.47;5038182;28;20033;-84
2023/04/07 04:16:08;;;;;;;27.42;16.40;;;;;;;7.13;100.00;101441.50;5026586;28;20476;-84
2023/04/07 04:18:33;;;;;;;30.52;16.85;;;;;;;7.13;100.00;101441.50;5026068;28;20030;-84
2023/04/07 04:20:58;;;;;;;26.75;16.10;;;;;;;7.12;100.00;101442.44;5039276;28;20056;-84
2023/04/07 04:23:24;;;;;;;23.58;15.02;;;;;;;7.10;100.00;101439.03;5038585;28;20033;-84
2023/04/07 04:25:49;;;;;;;24.13;15.15;;;;;;;7.09;100.00;101434.66;5036135;28;20108;-84
2023/04/07 04:28:14;;;;;;;26.45;14.40;;;;;;;7.08;100.00;101437.38;5033623;28;20395;-84
2023/04/07 04:30:40;;;;;;;24.67;14.70;;;;;;;7.07;100.00;101436.53;5038725;28;20076;-84
2023/04/07 04:33:06;;;;;;;29.75;14.93;;;;;;;7.05;100.00;101441.06;5028103;28;20587;-84
2023/04/07 04:35:31;;;;;;;26.02;15.00;;;;;;;7.04;100.00;101440.22;5036084;28;20049;-84
2023/04/07 04:37:56;;;;;;;26.15;14.48;;;;;;;7.02;100.00;101449.13;5034716;28;20047;-84
2023/04/07 04:40:22;;;;;;;24.83;14.20;;;;;;;6.98;100.00;101448.44;5038100;28;20064;-84
2023/04/07 04:42:47;;;;;;;24.55;15.02;;;;;;;6.99;100.00;101450.13;5031515;28;20472;-83
2023/04/07 04:45:12;;;;;;;23.83;14.55;;;;;;;6.99;100.00;101458.06;5039345;28;20537;-83
2023/04/07 04:47:38;;;;;;;23.40;14.40;;;;;;;6.99;100.00;101460.69;5032779;28;20040;-83
2023/04/07 04:50:05;;;;;;;29.80;14.70;;;;;;;6.97;100.00;101465.22;5033009;28;20401;-84
2023/04/07 04:52:30;;;;;;;23.02;13.73;;;;;;;6.97;100.00;101469.66;5036005;28;20061;-84
2023/04/07 04:54:56;;;;;;;27.58;14.50;;;;;;;6.96;100.00;101467.94;5030559;28;20080;-84
2023/04/07 04:57:21;;;;;;;25.25;14.18;;;;;;;6.94;100.00;101468.00;5018634;28;20029;-84
2023/04/07 04:59:46;;;;;;;26.13;14.77;;;;;;;6.93;100.00;101470.72;5022410;28;20030;-84
2023/04/07 05:02:11;;;;;;;25.83;14.00;;;;;;;6.91;100.00;101475.25;5035577;28;20025;-84
2023/04/07 05:04:37;;;;;;;25.73;14.30;;;;;;;6.91;100.00;101481.41;5035419;28;20494;-84
2023/04/07 05:07:03;;;;;;;24.15;14.68;;;;;;;6.90;100.00;101484.97;5029053;28;20029;-84
2023/04/07 05:09:28;;;;;;;27.20;14.88;;;;;;;6.89;100.00;101485.88;5035537;28;20022;-84
2023/04/07 05:11:53;;;;;;;28.60;14.65;;;;;;;6.89;100.00;101487.69;5036198;28;20029;-84
2023/04/07 05:14:18;;;;;;;27.10;14.27;;;;;;;6.88;100.00;101489.47;5036439;28;20037;-84
2023/04/07 05:16:44;;;;;;;25.30;13.57;;;;;;;6.89;100.00;101490.31;5037133;28;20025;-84
2023/04/07 05:19:09;;;;;;;28.13;15.38;;;;;;;6.88;100.00;101491.22;5022594;28;20080;-84
2023/04/07 05:21:34;;;;;;;25.80;14.57;;;;;;;6.88;100.00;101499.16;5022680;28;20431;-83
2023/04/07 05:24:00;;;;;;;30.25;15.88;;;;;;;6.86;100.00;101501.88;5034736;28;20029;-84
2023/04/07 05:26:25;;;;;;;23.75;14.93;;;;;;;6.85;100.00;101492.25;5024008;28;20018;-84
2023/04/07 05:28:51;;;;;;;27.27;16.05;;;;;;;6.88;100.00;101500.03;5032222;28;20117;-84
2023/04/07 05:31:16;;;;;;;29.15;16.05;;;;;;;6.88;100.00;101499.16;5034862;28;20063;-84
2023/04/07 05:33:41;;;;;;;32.85;16.75;;;;;;;6.87;100.00;101505.38;5035196;28;20013;-84
2023/04/07 05:36:07;;;;;;;29.10;16.40;;;;;;;6.88;100.00;101504.44;5034936;28;20374;-84
2023/04/07 05:38:32;;;;;;;31.60;16.70;;;;;;;6.88;100.00;101507.94;5033677;28;20091;-84
2023/04/07 05:40:57;;;;;;;26.33;16.38;;;;;;;6.86;100.00;101507.16;5034899;28;20017;-84
2023/04/07 05:43:23;;;;;;;26.98;16.83;;;;;;;6.88;100.00;101510.59;5035085;28;20379;-84
2023/04/07 05:45:48;;;;;;;30.30;17.67;;;;;;;6.88;100.00;101509.72;5035092;28;20097;-84
2023/04/07 05:48:13;;;;;;;29.80;17.27;;;;;;;6.87;100.00;101514.16;5025497;28;20091;-84
2023/04/07 05:50:38;;;;;;;26.58;17.40;;;;;;;6.84;100.00;101504.63;5024416;28;20448;-84
2023/04/07 05:53:04;;;;;;;26.77;16.65;;;;;;;6.87;100.00;101508.03;5032787;28;20026;-83
2023/04/07 05:55:30;;;;;;;27.40;17.42;;;;;;;6.85;100.00;101511.59;5035561;28;20052;-83
2023/04/07 05:57:55;;;;;;;33.63;18.05;;;;;;;6.85;100.00;101508.94;5034614;28;20057;-83
2023/04/07 06:00:20;;;;;;;31.33;18.33;;;;;;;6.84;100.00;101511.66;5034793;28;20037;-83
2023/04/07 06:02:46;;;;;;;32.72;17.95;;;;;;;6.88;100.00;101504.44;5034606;28;20036;-84
2023/04/07 06:05:11;;;;;;;37.58;19.90;;;;;;;6.85;100.00;101511.59;5034633;28;20112;-85
2023/04/07 06:07:36;;;;;;;35.00;19.02;;;;;;;6.89;100.00;101512.28;5034444;28;20029;-84
2023/04/07 06:10:02;;;;;;;33.10;19.33;;;;;;;6.88;100.00;101515.00;5034529;28;20025;-85
2023/04/07 06:12:27;;;;;;;32.28;19.35;;;;;;;6.91;100.00;101517.50;5032356;28;20478;-85
2023/04/07 06:14:54;;;;;;;29.42;20.15;;;;;;;6.93;100.00;101521.78;5029177;28;20422;-84
2023/04/07 06:17:19;;;;;;;29.50;19.50;;;;;;;6.94;100.00;101530.53;5034067;28;20116;-84
2023/04/07 06:19:45;;;;;;;34.55;20.02;;;;;;;6.94;100.00;101526.09;5030238;28;20059;-83
2023/04/07 06:22:10;;;;;;;30.13;19.42;;;;;;;6.95;100.00;101527.81;5033411;28;20053;-83
2023/04/07 06:24:35;;;;;;;34.38;19.33;;;;;;;6.97;100.00;101533.88;5033211;28;20115;-83
2023/04/07 06:27:02;;;;;;;29.48;20.40;;;;;;;6.97;100.00;101536.53;5031265;28;20070;-83
2023/04/07 06:29:28;;;;;;;30.83;19.02;;;;;;;7.00;100.00;101535.53;5033299;28;20042;-84
2023/04/07 06:31:53;;;;;;;30.65;20.27;;;;;;;7.03;100.00;101538.03;5033472;28;20032;-84
2023/04/07 06:34:18;;;;;;;29.17;19.00;;;;;;;7.05;100.00;101536.16;5033158;28;20398;-83
2023/04/07 06:36:43;;;;;;;26.27;19.25;;;;;;;7.09;100.00;101540.31;5029200;28;20083;-83
2023/04/07 06:39:09;;;;;;;31.25;19.55;;;;;;;7.12;100.00;101540.19;5028316;28;20558;-83
2023/04/07 06:41:37;;;;;;;36.28;20.00;;;;;;;7.14;100.00;101538.31;5035701;28;20107;-84
2023/04/07 06:44:03;;;;;;;30.42;19.70;;;;;;;7.19;100.00;101540.72;5030199;28;20376;-84
2023/04/07 06:46:29;;;;;;;30.55;19.40;;;;;;;7.22;100.00;101545.84;5032837;28;20018;-83
2023/04/07 06:48:54;;;;;;;31.08;20.17;;;;;;;7.25;100.00;101548.34;5032932;28;20037;-84
2023/04/07 06:51:20;;;;;;;32.47;20.58;;;;;;;7.30;100.00;101556.03;5036736;28;20030;-84
2023/04/07 06:53:47;;;;;;;29.98;19.38;;;;;;;7.33;100.00;101558.53;5033241;28;20017;-84
2023/04/07 06:56:14;;;;;;;29.63;18.92;;;;;;;7.38;100.00;101551.22;5033442;28;20432;-84
2023/04/07 06:58:39;;;;;;;32.03;19.58;;;;;;;7.43;100.00;101554.47;5035386;28;20040;-84
2023/04/07 07:01:05;;;;;;;26.85;18.63;;;;;;;7.49;100.00;101555.91;5034749;28;20041;-84
2023/04/07 07:03:31;;;;;;;30.70;16.63;;;;;;;7.52;100.00;101567.19;5021850;28;20053;-84
2023/04/07 07:05:57;;;;;;;24.60;15.57;;;;;;;7.57;100.00;101567.78;5030914;28;20525;-83
2023/04/07 07:08:24;;;;;;;29.17;16.70;;;;;;;7.60;100.00;101570.28;5034976;28;20037;-84
2023/04/07 07:10:49;;;;;;;27.10;16.27;;;;;;;7.63;100.00;101563.13;5033825;28;20069;-84
2023/04/07 07:13:15;;;;;;;24.52;15.18;;;;;;;7.67;100.00;101565.53;5026667;28;20056;-84
2023/04/07 07:15:40;;;;;;;26.63;15.65;;;;;;;7.70;100.00;101564.53;5040587;28;20052;-83
2023/04/07 07:18:05;;;;;;;23.00;15.25;;;;;;;7.74;100.00;101560.78;5050222;28;20026;-84
2023/04/07 07:20:31;;;;;;;27.00;15.23;;;;;;;7.76;100.00;101570.34;5038287;28;20042;-84
2023/04/07 07:22:59;;;;;;;25.25;15.57;;;;;;;7.80;100.00;101573.69;5043333;28;20120;-84
2023/04/07 07:25:27;;;;;;;24.70;14.73;;;;;;;7.85;100.00;101576.94;5053045;28;20045;-84
2023/04/07 07:27:53;;;;;;;23.25;15.23;;;;;;;7.90;100.00;101574.88;5045819;28;20032;-84
2023/04/07 07:30:22;;;;;;;24.75;13.90;;;;;;;7.95;100.00;101574.66;5031253;28;20413;-84
2023/04/07 07:32:48;;;;;;;;;;;;;;;8.03;100.00;101576.88;5023856;28;20066;-84
2023/04/07 07:35:14;;;;;;;21.45;13.57;;;;;;;8.06;100.00;101577.56;5017062;28;20286;-84
2023/04/07 07:37:39;;;;;;;22.15;11.77;;;;;;;8.10;100.00;101580.91;5032821;28;20049;-84
2023/04/07 07:40:05;;;;;;;21.08;9.98;;;;;;;8.12;100.00;101581.66;5030666;28;20033;-84
2023/04/07 07:42:30;;;;;;;18.27;9.48;;;;;;;8.20;100.00;101590.03;5032563;28;20033;-84
2023/04/07 07:44:56;;;;;;;17.88;9.70;;;;;;;8.22;100.00;101590.81;5035131;28;20025;-84
2023/04/07 07:47:22;;;;;;;16.77;9.10;;;;;;;8.26;100.00;101595.00;5033367;28;20063;-84
2023/04/07 07:49:47;;;;;;;18.13;8.85;;;;;;;8.28;100.00;101598.41;5032852;28;20403;-84
2023/04/07 07:52:13;;;;;;;10.40;7.30;;;;;;;8.30;100.00;101601.81;5033686;28;20112;-84
2023/04/07 07:54:38;;;;;;;15.40;7.50;;;;;;;8.30;100.00;101599.19;5032718;28;20026;-83
2023/04/07 07:57:05;;;;;;;15.18;6.40;;;;;;;8.34;100.00;101603.38;5029641;28;20368;-83
2023/04/07 07:59:30;;;;;;;11.50;5.15;;;;;;;8.33;100.00;101596.38;5025986;28;20076;-83
2023/04/07 08:01:56;;;;;;;15.15;6.05;;;;;;;8.35;100.00;101604.22;5024433;28;20022;-83
2023/04/07 08:04:22;;;;;;;11.93;5.65;;;;;;;8.36;100.00;101603.28;5025349;28;20061;-83
2023/04/07 08:06:48;;;;;;;12.50;5.90;;;;;;;8.43;100.00;101606.50;5021529;28;20022;-83
2023/04/07 08:09:13;;;;;;;10.10;6.07;;;;;;;8.45;100.00;101609.91;5034898;28;20021;-83
2023/04/07 08:11:39;;;;;;;10.63;6.22;;;;;;;8.50;100.00;101614.00;5033775;28;20068;-82
2023/04/07 08:14:04;;;;;;;13.20;6.65;;;;;;;8.59;100.00;101615.25;5035325;28;20083;-83
2023/04/07 08:16:29;;;;;;;11.82;6.22;;;;;;;8.62;100.00;101615.09;5035547;28;20049;-83
2023/04/07 08:18:55;;;;;;;11.52;5.60;;;;;;;8.70;100.00;101614.69;5033323;28;20040;-83
2023/04/07 08:21:23;;;;;;;9.27;5.38;;;;;;;8.77;100.00;101618.69;5035358;28;20021;-83
2023/04/07 08:23:55;;;;;;;13.05;5.57;;;;;;;8.83;100.00;101626.28;5034778;28;20032;-83
2023/04/07 08:26:20;;;;;;;13.15;5.90;;;;;;;8.88;100.00;101631.34;5035307;28;20428;-83
2023/04/07 08:28:46;;;;;;;13.27;6.13;;;;;;;8.95;100.00;101626.53;5036014;28;20123;-83
2023/04/07 08:31:12;;;;;;;9.52;4.50;;;;;;;8.96;100.00;101634.41;5033743;28;20027;-83
2023/04/07 08:33:37;;;;;;;11.45;4.90;;;;;;;8.98;100.00;101635.16;5019331;28;20030;-83
2023/04/07 08:36:03;;;;;;;10.75;4.47;;;;;;;8.97;100.00;101641.38;5028459;28;20029;-84
2023/04/07 08:38:28;;;;;;;6.68;3.88;;;;;;;8.98;100.00;101642.25;5034987;28;20482;-84
2023/04/07 08:41:00;;;;;;;10.05;3.70;;;;;;;8.97;100.00;101641.38;5035222;28;20212;-83
2023/04/07 08:43:27;;;;;;;8.20;2.67;;;;;;;8.96;100.00;101641.47;5028753;28;20567;-84
2023/04/07 08:45:56;;;;;;;6.30;3.05;;;;;;;8.92;100.00;101651.41;5029140;28;20034;-83
2023/04/07 08:48:25;;;;;;;7.72;3.28;;;;;;;8.91;100.00;101647.06;5027709;28;20060;-83
2023/04/07 08:50:51;;;;;;;15.27;3.20;;;;;;;8.92;100.00;101648.75;5034511;28;20336;-83
2023/04/07 08:53:23;;;;;;;7.88;3.25;;;;;;;8.91;100.00;101654.13;5034855;28;20024;-83
2023/04/07 08:55:48;;;;;;;9.18;3.00;;;;;;;8.92;100.00;101659.34;5035375;28;20033;-83
2023/04/07 08:58:15;;;;;;;6.90;2.55;;;;;;;8.94;100.00;101662.75;5036846;28;20032;-82
2023/04/07 09:00:44;;;;;;;5.63;3.17;;;;;;;8.97;100.00;101659.09;5033364;28;20104;-83
2023/04/07 09:03:10;;;;;;;7.45;2.90;;;;;;;9.00;100.00;101665.06;5018564;28;20032;-83
2023/04/07 09:05:36;;;;;;;7.60;2.83;;;;;;;9.08;100.00;101660.19;5035011;28;20026;-83
2023/04/07 09:08:02;;;;;;;9.93;3.40;;;;;;;9.13;100.00;101667.88;5028589;28;20498;-83
2023/04/07 09:11:47;;;;;;;8.15;2.97;;;;;;;9.21;100.00;101676.25;5088416;27;20412;-62
2023/04/07 09:14:14;;;;;;;8.90;3.10;;;;;;;9.26;100.00;101663.56;5074604;28;20039;-62
2023/04/07 09:16:39;;;;;;;43.67;11.35;;;;;;;9.34;100.00;101659.63;5058450;28;20434;-62
2023/04/07 09:19:06;;;;;;;24.05;7.00;;;;;;;9.38;100.00;101667.31;5067502;28;20068;-62
2023/04/07 09:21:48;;;;;;;141.52;38.28;;;;;;;9.41;100.00;101669.78;5068343;28;20039;-60
2023/04/07 09:24:28;;;;;;;209.00;51.40;;;;;;;9.45;100.00;101671.28;5068132;28;20033;-62
2023/04/07 09:27:14;;;;;;;105.80;28.50;;;;;;;9.55;100.00;101666.31;5061582;28;20036;-61
2023/04/07 09:29:42;;;;;;;148.00;36.10;;;;;;;9.50;100.00;101670.19;5065272;28;20035;-57
2023/04/07 09:32:07;;;;;;;81.57;19.08;;;;;;;9.48;100.00;101667.63;5068424;28;20155;-60
2023/04/07 09:34:35;;;;;;;71.47;25.58;;;;;;;9.51;100.00;101671.88;5065580;28;20127;-61
2023/04/07 09:37:03;;;;;;;41.83;11.68;;;;;;;9.56;100.00;101672.47;5059600;28;20029;-60
2023/04/07 09:39:29;;;;;;;158.57;42.92;;;;;;;9.62;100.00;101672.09;5066535;28;20032;-61
2023/04/07 09:41:55;;;;;;;11.40;3.90;;;;;;;9.65;100.00;101666.63;5061958;28;20028;-61
2023/04/07 09:44:21;;;;;;;11.85;3.35;;;;;;;9.71;100.00;101674.22;5039629;28;20025;-61
2023/04/07 09:46:54;;;;;;;6.55;2.88;;;;;;;9.76;100.00;101668.66;5053257;28;20501;-61
2023/04/07 09:49:20;;;;;;;7.82;3.00;;;;;;;9.80;100.00;101668.34;5044962;28;20034;-61
2023/04/07 09:51:56;;;;;;;7.07;3.13;;;;;;;9.89;100.00;101666.97;5046004;28;20024;-62
2023/04/07 09:54:36;;;;;;;11.05;3.00;;;;;;;9.92;100.00;101663.25;5046989;28;20037;-62
2023/04/07 09:57:06;;;;;;;12.15;3.40;;;;;;;9.96;100.00;101672.75;5038293;28;20037;-61
2023/04/07 09:59:34;;;;;;;11.30;3.20;;;;;;;9.99;100.00;101680.50;5045954;28;20040;-62
2023/04/07 10:02:00;;;;;;;9.00;3.15;;;;;;;10.01;100.00;101670.66;5041796;28;20108;-62
2023/04/07 10:04:26;;;;;;;10.95;3.20;;;;;;;10.02;100.00;101675.00;5048777;28;20116;-62
2023/04/07 10:06:53;;;;;;;13.95;3.63;;;;;;;10.02;99.37;101677.66;5039315;28;20056;-62
2023/04/07 10:09:19;;;;;;;11.57;3.60;;;;;;;10.04;100.00;101674.91;5041671;28;20116;-62
2023/04/07 10:11:45;;;;;;;12.93;3.35;;;;;;;9.97;98.61;101683.25;5040481;28;20421;-62
2023/04/07 10:14:10;;;;;;;8.73;3.22;;;;;;;10.00;99.36;101684.88;5053751;28;20057;-62
2023/04/07 10:16:37;;;;;;;14.88;3.67;;;;;;;10.01;99.61;101681.28;5025893;28;20452;-62
2023/04/07 10:19:04;;;;;;;12.13;2.70;;;;;;;9.99;98.82;101688.47;5033216;28;20075;-62
2023/04/07 10:21:30;;;;;;;9.35;2.95;;;;;;;9.99;98.75;101694.66;5044392;27;20109;-62
2023/04/07 10:24:09;;;;;;;12.38;3.15;;;;;;;10.02;98.93;101700.72;5032759;28;20044;-62
2023/04/07 10:26:37;;;;;;;9.52;2.90;;;;;;;10.00;98.56;101700.81;5027769;28;20121;-62
2023/04/07 10:29:10;;;;;;;12.05;3.25;;;;;;;10.05;100.00;101700.53;5039261;28;20032;-62
2023/04/07 10:31:37;;;;;;;10.23;3.15;;;;;;;10.03;97.46;101702.44;5028182;28;20120;-61
2023/04/07 10:34:03;;;;;;;9.23;2.78;;;;;;;10.06;98.78;101702.22;5035938;28;20029;-62
2023/04/07 10:36:28;;;;;;;7.40;2.70;;;;;;;10.10;98.38;101704.59;5026963;28;20375;-62
2023/04/07 10:39:18;;;;;;;6.30;2.42;;;;;;;10.19;99.19;101712.00;5034870;28;20474;-62
2023/04/07 10:41:43;;;;;;;11.65;2.70;;;;;;;10.24;98.18;101706.44;5029496;28;20055;-62
2023/04/07 10:44:38;;;;;;;6.22;2.60;;;;;;;10.34;98.07;101720.88;5027786;28;20025;-61
2023/04/07 10:47:05;;;;;;;9.93;2.75;;;;;;;10.34;93.61;101722.66;5013634;28;20030;-62
2023/04/07 10:49:34;;;;;;;12.07;2.97;;;;;;;10.33;94.52;101719.16;5025934;28;20018;-62
2023/04/07 10:52:11;;;;;;;12.07;2.97;;;;;;;10.38;96.94;101724.19;5016855;28;20041;-64
2023/04/07 10:54:37;;;;;;;10.70;2.90;;;;;;;10.33;95.02;101719.16;5030364;28;20041;-63
2023/04/07 10:57:02;;;;;;;9.43;2.80;;;;;;;10.32;93.46;101720.09;5025117;28;20745;-64
2023/04/07 10:59:32;;;;;;;11.77;3.20;;;;;;;10.31;93.79;101723.69;5030957;28;20891;-64
2023/04/07 11:02:13;;;;;;;13.30;3.03;;;;;;;10.29;92.31;101725.59;5021896;28;20386;-64
2023/04/07 11:04:41;;;;;;;11.32;3.05;;;;;;;10.24;91.78;101725.00;5019822;28;20034;-62
2023/04/07 11:07:06;;;;;;;9.95;2.75;;;;;;;10.25;92.94;101721.38;5015379;28;20046;-61
2023/04/07 11:09:31;;;;;;;12.55;2.85;;;;;;;10.35;94.79;101721.72;5021906;28;20034;-62
2023/04/07 11:11:57;;;;;;;7.10;2.65;;;;;;;10.40;90.70;101724.94;5014339;28;20033;-62